Time;durP1;ratioP1;P1;durP2;ratioP2;P2;SDS_P1;SDS_P2;PMS_P1;PMS_P2;Temp;Humidity;BMP_temperature;BMP_pressure;BME280_temperature;BME280_humidity;BME280_pressure;Samples;Min_cycle;Max_cycle;Signal;HPM_P1;HPM_P2
2022/09/17 00:01:20;;;;;;;3.92;1.42;;;;;;;11.74;71.78;99481.88;1799818;79;21820;-92
2022/09/17 00:03:52;;;;;;;4.65;1.30;;;;;;;11.79;71.83;99489.36;1776105;79;21949;-91
2022/09/17 00:06:19;;;;;;;4.20;1.37;;;;;;;11.84;71.78;99494.61;1789610;79;20939;-91
2022/09/17 00:08:46;;;;;;;7.00;1.65;;;;;;;11.89;71.80;99487.59;1770162;80;21222;-91
2022/09/17 00:11:22;;;;;;;7.47;3.35;;;;;;;11.94;71.81;99493.78;1770301;80;21055;-92
2022/09/17 00:13:49;;;;;;;6.72;1.75;;;;;;;12.02;71.82;99504.32;1774286;79;22619;-91
2022/09/17 00:16:34;;;;;;;5.33;1.47;;;;;;;12.07;71.73;99498.61;1741121;79;21073;-92
2022/09/17 00:19:00;;;;;;;;;;;;;;;12.10;71.68;99502.54;1785261;79;21097;-92
2022/09/17 00:21:28;;;;;;;4.62;1.12;;;;;;;12.14;71.67;99512.20;1738590;82;20381;-91
2022/09/17 00:24:00;;;;;;;5.05;1.30;;;;;;;12.17;71.62;99517.94;1784382;79;21089;-91
2022/09/17 00:26:27;;;;;;;7.80;1.98;;;;;;;12.18;71.61;99517.94;1751227;81;22609;-91
2022/09/17 00:28:55;;;;;;;7.58;1.62;;;;;;;12.23;71.62;99517.47;1777558;79;21113;-91
2022/09/17 00:31:23;;;;;;;3.58;1.30;;;;;;;12.29;71.60;99517.90;1792403;79;21493;-91
2022/09/17 00:33:50;;;;;;;4.95;1.37;;;;;;;12.32;71.48;99515.72;1786976;79;21149;-90
2022/09/17 00:36:17;;;;;;;4.47;1.47;;;;;;;12.31;71.32;99516.58;1783131;79;21094;-90
2022/09/17 00:38:44;;;;;;;5.00;1.62;;;;;;;12.27;71.21;99520.98;1780785;79;23013;-92
2022/09/17 00:41:11;;;;;;;3.52;1.30;;;;;;;12.23;71.24;99520.55;1766868;79;21023;-91
2022/09/17 00:43:48;;;;;;;4.22;1.40;;;;;;;12.18;71.21;99515.30;1769976;79;21072;-91
2022/09/17 00:46:41;;;;;;;5.92;1.12;;;;;;;12.14;71.32;99518.80;1770013;79;21059;-91
2022/09/17 00:49:17;;;;;;;4.03;1.30;;;;;;;12.10;71.40;99518.36;1750978;81;21141;-92
2022/09/17 00:51:54;;;;;;;7.47;1.30;;;;;;;12.06;71.51;99525.84;1777177;79;21050;-91
2022/09/17 00:54:25;;;;;;;4.42;1.92;;;;;;;12.08;71.69;99525.41;1771133;79;21052;-91
2022/09/17 00:59:48;;;;;;;4.92;1.45;;;;;;;12.13;71.84;99522.33;1641184;85;21130;-90
2022/09/17 01:02:18;;;;;;;4.62;1.27;;;;;;;12.18;71.92;99517.94;1707481;81;21020;-92
2022/09/17 01:04:48;;;;;;;2.83;1.12;;;;;;;12.18;72.00;99516.62;1726389;80;21770;-92
2022/09/17 01:07:49;;;;;;;4.12;1.37;;;;;;;12.23;72.03;99522.74;1774898;79;21030;-92
2022/09/17 01:10:59;;;;;;;5.70;1.20;;;;;;;12.25;72.06;99528.02;1767634;80;20952;-93
2022/09/17 01:14:02;;;;;;;2.33;0.93;;;;;;;12.26;72.11;99531.12;1721099;82;21108;-92
2022/09/17 01:16:36;;;;;;;2.37;1.02;;;;;;;12.28;72.27;99533.30;1771771;80;21063;-90
2022/09/17 01:19:37;;;;;;;2.50;1.00;;;;;;;12.28;72.36;99539.03;1728716;81;21851;-90
2022/09/17 01:22:29;;;;;;;2.25;0.95;;;;;;;12.29;72.48;99531.54;1707599;83;21040;-91
2022/09/17 01:25:31;;;;;;;3.05;1.10;;;;;;;12.29;72.59;99528.90;1701464;82;20975;-92
2022/09/17 01:28:25;;;;;;;3.27;1.15;;;;;;;12.30;72.70;99534.18;1754310;81;21063;-91
2022/09/17 01:31:37;;;;;;;3.08;1.10;;;;;;;12.31;72.73;99537.24;1692992;81;21085;-92
2022/09/17 01:34:26;;;;;;;3.02;1.15;;;;;;;12.33;72.78;99528.01;1751939;81;21866;-92
2022/09/17 01:37:16;;;;;;;2.65;1.20;;;;;;;12.33;72.83;99523.63;1760861;80;21007;-91
2022/09/17 01:43:14;;;;;;;4.83;1.27;;;;;;;12.30;72.90;99517.03;1775941;80;21965;-92
2022/09/17 01:45:53;;;;;;;3.98;1.55;;;;;;;12.29;72.96;99527.13;1723656;82;22032;-92
2022/09/17 01:48:26;;;;;;;4.17;1.42;;;;;;;12.27;72.95;99522.75;1717685;82;23368;-91
2022/09/17 01:51:22;;;;;;;1.82;0.90;;;;;;;12.23;72.99;99526.70;1723321;82;21049;-91
2022/09/17 01:58:45;;;;;;;;;;;;;;;;;;;;;
2022/09/17 02:01:16;;;;;;;1.50;1.00;;;;;;;12.14;73.01;99517.92;1774788;78;21097;-90
2022/09/17 02:03:58;;;;;;;3.95;1.50;;;;;;;12.12;73.15;99518.38;1777307;79;22575;-91
2022/09/17 02:06:30;;;;;;;5.95;1.50;;;;;;;12.10;73.14;99514.86;1775707;78;21161;-91
2022/09/17 02:09:00;;;;;;;3.05;1.22;;;;;;;12.09;73.19;99514.41;1770714;80;21090;-90
2022/09/17 02:11:27;;;;;;;3.77;1.30;;;;;;;12.08;73.17;99517.49;1795770;78;21022;-92
2022/09/17 02:14:04;;;;;;;3.58;1.10;;;;;;;12.07;73.15;99505.20;1800629;78;21343;-93
2022/09/17 02:16:34;;;;;;;4.35;1.30;;;;;;;12.07;73.22;99510.48;1797760;78;21731;-92
2022/09/17 02:19:27;;;;;;;2.87;0.95;;;;;;;12.05;73.39;99503.88;1744320;81;21039;-90
2022/09/17 02:22:35;;;;;;;4.42;1.22;;;;;;;12.03;73.41;99510.92;1785953;77;20908;-91
2022/09/17 02:25:47;;;;;;;2.83;1.10;;;;;;;12.00;73.48;99508.72;1779917;78;20951;-92
2022/09/17 02:28:37;;;;;;;1.85;0.90;;;;;;;12.00;73.55;99509.59;1779220;78;21137;-91
2022/09/17 02:31:03;;;;;;;3.98;1.20;;;;;;;11.98;73.63;99506.08;1783087;79;21689;-92
2022/09/17 02:33:31;;;;;;;4.45;1.30;;;;;;;11.96;73.64;99499.93;1785557;80;21089;-92
2022/09/17 02:36:05;;;;;;;3.12;1.02;;;;;;;11.94;73.71;99505.65;1778435;80;22276;-92
2022/09/17 02:38:32;;;;;;;3.45;1.37;;;;;;;11.94;73.83;99500.83;1718089;81;21074;-91
2022/09/17 02:41:19;;;;;;;4.25;1.40;;;;;;;11.92;73.82;99503.88;1784913;78;21070;-91
2022/09/17 02:43:57;;;;;;;4.60;1.22;;;;;;;11.89;73.87;99502.54;1754712;78;21761;-91
2022/09/17 02:46:53;;;;;;;2.90;1.20;;;;;;;11.86;73.86;99508.26;1783892;79;21518;-90
2022/09/17 02:49:37;;;;;;;3.37;1.35;;;;;;;11.84;73.83;99513.97;1735197;80;21097;-91
2022/09/17 02:52:18;;;;;;;6.58;1.70;;;;;;;11.77;73.80;99506.94;1712386;80;21287;-91
2022/09/17 02:55:02;;;;;;;1.72;0.95;;;;;;;11.76;73.86;99506.93;1797110;78;21394;-92
2022/09/17 02:57:42;;;;;;;1.98;1.20;;;;;;;11.69;73.88;99503.40;1777694;79;22650;-91
2022/09/17 03:00:16;;;;;;;5.60;1.80;;;;;;;11.71;73.88;99506.91;1748365;80;21056;-92
2022/09/17 03:02:55;;;;;;;5.22;1.17;;;;;;;11.69;73.89;99506.03;1742144;79;21086;-92
2022/09/17 03:05:23;;;;;;;7.12;1.47;;;;;;;11.67;73.90;99507.38;1769180;79;21078;-91
2022/09/17 03:07:50;;;;;;;4.35;1.30;;;;;;;11.70;73.96;99515.72;1778623;80;21070;-91
2022/09/17 03:10:18;;;;;;;3.45;1.37;;;;;;;11.72;73.96;99520.99;1757708;79;21769;-91
2022/09/17 03:12:45;;;;;;;5.00;1.50;;;;;;;11.72;73.96;99520.55;1781925;80;21054;-92
2022/09/17 03:15:12;;;;;;;4.22;1.50;;;;;;;11.73;73.96;99524.05;1782196;80;21085;-91
2022/09/17 03:17:39;;;;;;;3.42;1.32;;;;;;;11.72;73.92;99517.04;1776679;80;21039;-91
2022/09/17 03:20:07;;;;;;;4.35;1.32;;;;;;;11.71;73.94;99512.19;1780130;80;21643;-91
2022/09/17 03:22:34;;;;;;;4.12;1.30;;;;;;;11.67;73.85;99509.11;1778529;80;22578;-91
2022/09/17 03:27:58;;;;;;;2.55;1.20;;;;;;;11.59;73.90;99502.97;1659005;83;20986;-93
2022/09/17 03:30:25;;;;;;;3.42;1.37;;;;;;;11.57;73.91;99509.55;1759714;79;21053;-90
2022/09/17 03:32:52;;;;;;;4.40;1.30;;;;;;;11.54;73.97;99508.22;1777356;79;21053;-90
2022/09/17 03:35:18;;;;;;;3.75;1.25;;;;;;;11.55;73.99;99511.31;1789289;78;21760;-92
2022/09/17 03:37:46;;;;;;;5.35;1.40;;;;;;;11.55;74.03;99511.31;1794822;78;21092;-92
2022/09/17 03:40:13;;;;;;;5.55;1.90;;;;;;;11.57;74.06;99499.45;1742093;80;21716;-92
2022/09/17 03:42:39;;;;;;;3.70;1.07;;;;;;;11.61;74.09;99509.12;1739302;81;21044;-93
2022/09/17 03:45:25;;;;;;;4.40;1.32;;;;;;;11.61;74.06;99503.84;1751464;80;21571;-93
2022/09/17 03:47:45;;;;;;;5.05;1.25;;;;;;;11.59;74.07;99497.25;1735125;80;21065;-93
2022/09/17 03:50:22;;;;;;;2.83;1.30;;;;;;;11.58;74.01;99515.28;1781110;79;21108;-93
2022/09/17 03:52:49;;;;;;;5.58;1.60;;;;;;;11.54;73.91;99516.57;1774999;79;21610;-92
2022/09/17 03:55:16;;;;;;;2.52;1.10;;;;;;;11.43;73.84;99509.95;1791015;79;22215;-92
2022/09/17 03:57:43;;;;;;;3.85;0.88;;;;;;;11.32;73.89;99508.65;1797138;78;21505;-92
2022/09/17 04:00:13;;;;;;;2.52;1.00;;;;;;;11.21;73.95;99516.52;1789235;79;22353;-92
2022/09/17 04:02:44;;;;;;;4.58;1.10;;;;;;;11.13;74.05;99522.63;1767991;79;20975;-90
2022/09/17 04:05:14;;;;;;;2.72;0.90;;;;;;;11.06;74.13;99530.52;1778258;79;21050;-90
2022/09/17 04:07:41;;;;;;;4.80;1.25;;;;;;;10.97;74.22;99534.43;1745249;81;21070;-91
2022/09/17 04:10:08;;;;;;;4.28;1.17;;;;;;;10.89;74.29;99544.94;1745133;81;21145;-91
2022/09/17 04:12:35;;;;;;;2.92;1.00;;;;;;;10.82;74.38;99542.27;1750351;81;21737;-91
2022/09/17 04:15:02;;;;;;;4.90;1.70;;;;;;;10.74;74.49;99538.73;1764742;80;22153;-91
2022/09/17 04:17:29;;;;;;;4.62;2.02;;;;;;;10.66;74.60;99539.98;1774359;79;21038;-91
2022/09/17 04:19:55;;;;;;;6.80;2.40;;;;;;;10.62;74.76;99536.90;1777903;79;21082;-91
2022/09/17 04:22:22;;;;;;;3.25;1.62;;;;;;;10.58;74.91;99533.81;1771811;79;21078;-91
2022/09/17 04:24:49;;;;;;;4.30;1.80;;;;;;;10.55;74.99;99534.69;1776030;79;21748;-91
2022/09/17 04:27:15;;;;;;;6.35;1.90;;;;;;;10.54;75.05;99533.36;1780403;79;21123;-90
2022/09/17 04:29:42;;;;;;;3.85;1.80;;;;;;;10.51;75.09;99538.18;1787234;79;21045;-90
2022/09/17 04:32:09;;;;;;;3.70;1.98;;;;;;;10.49;75.20;99543.84;1793501;79;21051;-91
2022/09/17 04:34:35;;;;;;;5.25;1.80;;;;;;;10.47;75.24;99546.89;1771070;79;21070;-90
2022/09/17 04:37:02;;;;;;;2.58;1.40;;;;;;;10.47;75.33;99548.21;1772418;79;22551;-85
2022/09/17 04:39:29;;;;;;;4.95;2.02;;;;;;;10.49;75.41;99543.84;1777199;80;21042;-86
2022/09/17 04:41:55;;;;;;;4.62;1.55;;;;;;;10.51;75.42;99539.49;1775739;80;21097;-86
2022/09/17 04:44:22;;;;;;;3.90;1.70;;;;;;;10.54;75.46;99541.25;1778812;80;21053;-86
2022/09/17 04:46:49;;;;;;;5.53;1.67;;;;;;;10.56;75.49;99541.69;1775700;80;21049;-86
2022/09/17 04:49:16;;;;;;;4.10;1.50;;;;;;;10.60;75.49;99547.41;1778027;79;21803;-86
2022/09/17 04:51:43;;;;;;;2.17;1.35;;;;;;;10.64;75.55;99543.05;1780726;78;21065;-86
2022/09/17 04:54:09;;;;;;;4.35;1.47;;;;;;;10.68;75.51;99540.45;1777025;79;21473;-86
2022/09/17 04:56:37;;;;;;;2.90;1.50;;;;;;;10.74;75.55;99545.31;1793264;79;21078;-86
2022/09/17 04:59:04;;;;;;;3.17;1.65;;;;;;;10.81;75.60;99545.34;1797550;78;21521;-86
2022/09/17 05:01:30;;;;;;;4.50;1.70;;;;;;;10.93;75.64;99544.52;1792366;78;22141;-85
2022/09/17 05:03:57;;;;;;;4.95;1.80;;;;;;;11.02;75.53;99542.36;1777601;80;21568;-86
2022/09/17 05:06:24;;;;;;;3.60;1.67;;;;;;;11.11;75.51;99540.18;1775414;79;21105;-85
2022/09/17 05:08:51;;;;;;;3.65;1.70;;;;;;;11.29;75.61;99540.23;1754753;79;21126;-85
2022/09/17 05:11:18;;;;;;;3.72;1.87;;;;;;;11.50;75.54;99544.67;1769712;78;21102;-85
2022/09/17 05:13:44;;;;;;;3.85;1.87;;;;;;;11.68;75.36;99540.75;1763378;80;21806;-85
2022/09/17 05:16:11;;;;;;;4.83;2.55;;;;;;;11.86;75.17;99540.31;1756021;80;21126;-86
2022/09/17 05:18:38;;;;;;;3.77;1.77;;;;;;;11.94;74.97;99539.93;1778356;79;21498;-86
2022/09/17 05:21:05;;;;;;;3.70;1.67;;;;;;;11.99;74.77;99546.09;1768834;80;21096;-86
2022/09/17 05:23:34;;;;;;;4.33;1.90;;;;;;;12.09;74.75;99544.33;1770996;80;21514;-87
2022/09/17 05:26:00;;;;;;;3.72;1.67;;;;;;;12.20;74.62;99550.47;1769480;80;21981;-87
2022/09/17 05:28:27;;;;;;;2.83;2.00;;;;;;;12.33;74.55;99558.35;1777533;80;21098;-86
2022/09/17 05:30:54;;;;;;;4.80;1.67;;;;;;;12.42;74.40;99553.06;1773898;80;21071;-86
2022/09/17 05:33:21;;;;;;;3.62;1.90;;;;;;;12.49;74.27;99554.81;1771895;80;21542;-86
2022/09/17 05:35:48;;;;;;;3.85;1.75;;;;;;;12.54;74.16;99554.38;1777191;80;21024;-86
2022/09/17 05:38:14;;;;;;;3.02;1.57;;;;;;;12.61;74.13;99554.80;1765062;80;21882;-86
2022/09/17 05:40:42;;;;;;;2.92;1.57;;;;;;;12.68;74.05;99562.25;1777456;79;21525;-85
2022/09/17 05:43:11;;;;;;;6.72;2.02;;;;;;;12.74;74.00;99562.67;1766512;80;21062;-86
2022/09/17 05:45:39;;;;;;;3.45;1.85;;;;;;;12.80;73.85;99567.50;1774319;80;21055;-85
2022/09/17 05:48:09;;;;;;;2.98;1.57;;;;;;;12.83;73.68;99562.19;1783511;80;21564;-85
2022/09/17 05:50:39;;;;;;;2.80;1.72;;;;;;;12.91;73.65;99570.09;1773486;80;21705;-85
2022/09/17 05:53:11;;;;;;;2.37;1.42;;;;;;;12.95;73.46;99565.26;1779235;79;21058;-85
2022/09/17 05:55:38;;;;;;;3.00;1.70;;;;;;;12.96;73.44;99557.75;1771291;79;21039;-85
2022/09/17 05:58:16;;;;;;;6.47;2.50;;;;;;;12.99;73.46;99568.77;1791597;79;21244;-86
2022/09/17 06:00:42;;;;;;;4.05;1.85;;;;;;;12.97;73.32;99562.58;1793247;79;21051;-86
2022/09/17 06:03:10;;;;;;;2.70;1.77;;;;;;;12.93;73.20;99570.99;1794277;78;22658;-84
2022/09/17 06:05:37;;;;;;;4.00;1.62;;;;;;;12.89;73.18;99571.86;1785389;78;21065;-86
2022/09/17 06:08:04;;;;;;;5.35;1.72;;;;;;;12.86;73.13;99569.25;1775532;79;21078;-85
2022/09/17 06:10:31;;;;;;;2.30;1.90;;;;;;;12.81;73.19;99574.53;1770958;80;21030;-85
2022/09/17 06:12:58;;;;;;;2.22;1.55;;;;;;;12.77;73.17;99573.23;1739906;81;21076;-85
2022/09/17 06:15:31;;;;;;;3.80;1.60;;;;;;;12.72;73.17;99573.23;1779404;80;21733;-86
2022/09/17 06:17:57;;;;;;;3.15;1.40;;;;;;;12.76;73.41;99575.01;1772294;80;21077;-85
2022/09/17 06:20:28;;;;;;;2.37;1.45;;;;;;;12.92;73.59;99581.55;1775463;79;21113;-86
2022/09/17 06:22:57;;;;;;;4.35;1.57;;;;;;;13.11;73.65;99577.08;1771295;79;21117;-85
2022/09/17 06:25:25;;;;;;;3.05;1.90;;;;;;;13.33;73.57;99580.09;1767742;79;21099;-85
2022/09/17 06:27:52;;;;;;;2.60;1.50;;;;;;;13.61;73.56;99576.84;1773084;79;21768;-85
2022/09/17 06:30:18;;;;;;;1.77;1.12;;;;;;;13.94;73.40;99581.45;1774798;79;21128;-85
2022/09/17 06:32:45;;;;;;;3.50;1.57;;;;;;;14.23;73.04;99582.11;1762969;79;22225;-86
2022/09/17 06:35:15;;;;;;;3.33;1.70;;;;;;;14.38;72.46;99585.52;1761543;79;21050;-86
2022/09/17 06:37:42;;;;;;;4.60;1.35;;;;;;;14.45;71.98;99589.00;1762450;79;21086;-85
2022/09/17 06:40:09;;;;;;;2.85;1.90;;;;;;;14.44;71.62;99596.49;1774214;79;21665;-86
2022/09/17 06:42:38;;;;;;;3.95;1.50;;;;;;;14.45;71.51;99595.62;1770477;79;21035;-85
2022/09/17 06:45:06;;;;;;;2.70;1.52;;;;;;;14.52;71.51;99589.80;1773584;79;21125;-86
2022/09/17 06:47:33;;;;;;;2.70;1.45;;;;;;;14.61;71.25;99592.39;1763312;79;21039;-85
2022/09/17 06:50:00;;;;;;;5.35;1.80;;;;;;;14.68;71.15;99594.55;1742003;81;21070;-85
2022/09/17 06:52:27;;;;;;;3.95;1.55;;;;;;;14.73;70.98;99597.58;1738732;81;21704;-86
2022/09/17 06:54:54;;;;;;;1.77;1.40;;;;;;;14.84;70.86;99601.41;1729323;81;21083;-85
2022/09/17 06:57:21;;;;;;;2.12;1.70;;;;;;;14.90;70.69;99596.07;1725073;82;21494;-85
2022/09/17 06:59:49;;;;;;;3.52;1.70;;;;;;;14.97;70.49;99607.00;1726572;82;21082;-86
2022/09/17 07:02:15;;;;;;;2.50;1.45;;;;;;;15.01;70.21;99601.22;1723186;82;21083;-85
2022/09/17 07:04:42;;;;;;;3.10;1.70;;;;;;;15.02;69.96;99602.13;1744259;80;21747;-86
2022/09/17 07:07:09;;;;;;;3.12;1.30;;;;;;;15.02;69.81;99611.40;1722241;82;21261;-86
2022/09/17 07:09:36;;;;;;;2.17;1.10;;;;;;;15.06;69.75;99614.44;1704079;83;21089;-85
2022/09/17 07:12:08;;;;;;;3.05;1.25;;;;;;;15.14;69.78;99608.59;1725361;83;21447;-85
2022/09/17 07:14:35;;;;;;;3.58;1.57;;;;;;;15.26;69.74;99601.83;1735210;81;21089;-84
2022/09/17 07:17:02;;;;;;;2.62;1.17;;;;;;;15.39;69.60;99607.85;1731083;81;21718;-83
2022/09/17 07:19:29;;;;;;;3.87;1.57;;;;;;;15.45;69.38;99605.56;1740153;80;21042;-85
2022/09/17 07:21:56;;;;;;;3.80;1.70;;;;;;;15.51;69.25;99607.67;1734804;82;22175;-86
2022/09/17 07:24:22;;;;;;;8.63;2.90;;;;;;;15.58;69.22;99607.16;1741751;80;21464;-84
2022/09/17 07:26:50;;;;;;;2.40;1.42;;;;;;;15.65;69.08;99615.88;1733487;81;21070;-85
2022/09/17 07:29:17;;;;;;;3.67;2.67;;;;;;;15.72;68.95;99616.23;1746495;80;22574;-85
2022/09/17 07:31:44;;;;;;;4.90;1.62;;;;;;;15.78;68.94;99625.45;1742505;82;21025;-83
2022/09/17 07:34:11;;;;;;;3.08;1.50;;;;;;;15.88;68.76;99627.55;1735794;81;21059;-83
2022/09/17 07:36:38;;;;;;;4.65;1.45;;;;;;;15.92;68.45;99635.43;1698336;82;21091;-83
2022/09/17 07:39:05;;;;;;;1.85;1.50;;;;;;;15.90;68.30;99633.25;1705781;82;21118;-83
2022/09/17 07:41:33;;;;;;;2.33;1.52;;;;;;;15.94;68.25;99638.07;1704040;83;22546;-83
2022/09/17 07:44:01;;;;;;;4.05;2.35;;;;;;;15.97;68.20;99645.09;1710654;82;21082;-84
2022/09/17 07:46:28;;;;;;;2.72;1.45;;;;;;;15.97;67.97;99641.11;1705227;83;21130;-83
2022/09/17 07:48:55;;;;;;;4.15;1.55;;;;;;;15.94;67.79;99646.03;1700404;82;21083;-83
2022/09/17 07:51:24;;;;;;;1.98;1.50;;;;;;;15.93;67.81;99653.55;1707147;83;21074;-83
2022/09/17 07:53:54;;;;;;;2.47;1.30;;;;;;;15.93;67.77;99655.78;1709075;82;22611;-83
2022/09/17 07:56:22;;;;;;;2.87;1.32;;;;;;;15.90;67.55;99659.79;1729333;81;21055;-82
2022/09/17 07:58:48;;;;;;;2.12;1.17;;;;;;;15.85;67.58;99658.97;1741664;81;21094;-83
2022/09/17 08:01:15;;;;;;;3.95;1.52;;;;;;;15.82;67.57;99659.03;1737237;81;21134;-83
2022/09/17 08:03:42;;;;;;;2.87;1.60;;;;;;;15.91;67.77;99657.55;1741767;81;21054;-83
2022/09/17 08:06:12;;;;;;;3.45;1.20;;;;;;;16.00;67.67;99672.47;1721118;81;22422;-83
2022/09/17 08:08:39;;;;;;;1.60;1.12;;;;;;;16.11;67.62;99664.36;1745000;81;21416;-83
2022/09/17 08:11:09;;;;;;;3.83;1.95;;;;;;;16.16;67.44;99665.17;1741555;81;21073;-83
2022/09/17 08:13:36;;;;;;;4.92;1.95;;;;;;;16.17;67.30;99661.60;1737167;81;21830;-83
2022/09/17 08:16:07;;;;;;;4.10;1.40;;;;;;;16.15;67.19;99667.84;1741381;81;21098;-83
2022/09/17 08:18:34;;;;;;;2.40;1.30;;;;;;;16.11;67.07;99662.58;1740491;80;21778;-83
2022/09/17 08:21:05;;;;;;;3.62;1.50;;;;;;;16.17;67.24;99667.38;1744259;82;20947;-83
2022/09/17 08:23:34;;;;;;;2.85;1.60;;;;;;;16.23;67.27;99661.95;1714355;82;21141;-84
2022/09/17 08:26:01;;;;;;;2.62;1.60;;;;;;;16.40;67.22;99669.66;1741823;81;21531;-83
2022/09/17 08:28:29;;;;;;;4.75;1.50;;;;;;;16.54;67.16;99668.98;1741754;81;21062;-84
2022/09/17 08:31:03;;;;;;;3.37;1.77;;;;;;;16.69;67.00;99675.36;1741594;81;22569;-83
2022/09/17 08:33:35;;;;;;;2.72;1.70;;;;;;;16.84;66.82;99672.92;1741644;81;21062;-83
2022/09/17 08:36:03;;;;;;;2.35;1.57;;;;;;;16.97;66.53;99680.66;1740865;81;21125;-83
2022/09/17 08:38:34;;;;;;;2.58;1.82;;;;;;;17.06;66.53;99684.05;1741217;81;21066;-82
2022/09/17 08:41:12;;;;;;;3.30;2.08;;;;;;;17.19;66.34;99681.14;1740998;82;21082;-83
2022/09/17 08:44:01;;;;;;;2.95;1.95;;;;;;;17.34;66.29;99691.94;1741260;82;22527;-83
2022/09/17 08:46:31;;;;;;;2.62;2.08;;;;;;;17.45;66.10;99688.61;1737492;81;21051;-82
2022/09/17 08:49:16;;;;;;;2.85;2.25;;;;;;;17.56;65.83;99687.94;1738817;81;21565;-82
2022/09/17 08:52:04;;;;;;;8.05;2.33;;;;;;;17.56;65.33;99685.28;1737528;81;22125;-82
2022/09/17 08:55:11;;;;;;;2.37;2.00;;;;;;;17.47;65.37;99685.03;1723006;81;21632;-83
2022/09/17 08:57:57;;;;;;;4.70;2.17;;;;;;;17.38;65.05;99682.98;1688206;81;21049;-83
2022/09/17 09:00:24;;;;;;;2.47;1.80;;;;;;;17.25;65.10;99685.03;1696874;81;21055;-82
2022/09/17 09:03:28;;;;;;;3.95;1.65;;;;;;;17.27;65.37;99685.88;1730214;82;21062;-83
2022/09/17 09:05:55;;;;;;;3.20;2.20;;;;;;;17.48;65.58;99691.22;1700347;82;21068;-82
2022/09/17 09:08:27;;;;;;;2.67;1.35;;;;;;;17.78;65.25;99696.35;1724197;81;21371;-83
2022/09/17 09:11:01;;;;;;;3.27;1.62;;;;;;;17.95;64.83;99690.70;1712118;81;21747;-83
2022/09/17 09:13:41;;;;;;;3.10;1.52;;;;;;;18.05;64.49;99701.55;1682272;83;21052;-83
2022/09/17 09:16:16;;;;;;;3.83;1.90;;;;;;;18.11;64.23;99691.67;1695982;83;21568;-83
2022/09/17 09:18:42;;;;;;;4.05;1.80;;;;;;;18.00;63.74;99698.13;1693298;82;21124;-84
2022/09/17 09:21:23;;;;;;;3.83;1.82;;;;;;;17.76;63.06;99698.64;1664986;84;21106;-84
2022/09/17 09:24:15;;;;;;;2.80;1.32;;;;;;;17.41;62.82;99693.58;1687579;82;21796;-83
2022/09/17 09:26:45;;;;;;;3.30;1.40;;;;;;;17.12;63.13;99695.45;1684940;83;21084;-83
2022/09/17 09:29:44;;;;;;;5.37;1.47;;;;;;;16.91;63.39;99696.27;1719679;80;21507;-83
2022/09/17 09:32:52;;;;;;;3.65;1.80;;;;;;;16.87;63.78;99687.50;1752286;80;21044;-83
2022/09/17 09:35:22;;;;;;;3.17;1.42;;;;;;;17.02;64.01;99688.11;1737418;80;21488;-83
2022/09/17 09:38:38;;;;;;;2.72;1.40;;;;;;;17.29;64.06;99688.05;1733596;80;21743;-83
2022/09/17 09:41:19;;;;;;;2.33;1.32;;;;;;;17.57;64.25;99688.37;1735445;80;21029;-82
2022/09/17 09:44:10;;;;;;;4.62;1.55;;;;;;;17.86;63.71;99685.11;1708445;82;21347;-82
2022/09/17 09:46:54;;;;;;;1.65;1.20;;;;;;;18.01;63.43;99672.38;1708465;82;21560;-83
2022/09/17 09:49:32;;;;;;;2.65;1.10;;;;;;;17.99;63.03;99671.06;1716052;82;21091;-83
2022/09/17 09:52:31;;;;;;;2.35;1.37;;;;;;;17.94;63.02;99673.41;1705501;82;22203;-83
2022/09/17 09:55:39;;;;;;;3.77;1.60;;;;;;;17.84;62.70;99671.39;1722631;80;20981;-83
2022/09/17 09:58:24;;;;;;;2.87;1.05;;;;;;;17.72;62.98;99671.21;1761637;79;21071;-83
2022/09/17 10:00:51;;;;;;;1.57;1.10;;;;;;;17.61;62.90;99675.42;1771502;79;21053;-83
2022/09/17 10:03:25;;;;;;;2.40;1.30;;;;;;;17.57;62.82;99676.83;1772398;79;21066;-83
2022/09/17 10:06:05;;;;;;;4.12;1.15;;;;;;;17.48;62.82;99676.59;1771502;79;21855;-83
2022/09/17 10:08:35;;;;;;;2.52;1.30;;;;;;;17.40;63.06;99666.11;1772914;79;20951;-82
2022/09/17 10:11:08;;;;;;;2.45;1.30;;;;;;;17.39;62.91;99678.09;1773515;79;21324;-82
2022/09/17 10:13:35;;;;;;;9.05;6.08;;;;;;;17.38;62.71;99678.99;1771461;79;21599;-83
2022/09/17 10:16:24;;;;;;;3.20;1.55;;;;;;;17.42;62.55;99672.73;1772119;79;21073;-82
2022/09/17 10:19:06;;;;;;;4.90;3.62;;;;;;;17.50;62.84;99688.07;1753209;79;22002;-82
2022/09/17 10:21:40;;;;;;;1.30;1.20;;;;;;;17.65;62.55;99678.44;1771245;79;21030;-82
2022/09/17 10:24:23;;;;;;;2.65;1.30;;;;;;;17.73;62.43;99680.92;1772182;79;21093;-83
2022/09/17 10:26:49;;;;;;;2.65;1.25;;;;;;;17.75;61.98;99683.09;1772234;80;21085;-83
2022/09/17 10:29:18;;;;;;;2.45;2.02;;;;;;;17.74;61.78;99678.70;1772259;80;21065;-83
2022/09/17 10:31:53;;;;;;;3.25;2.17;;;;;;;17.80;61.62;99681.69;1752287;79;23041;-83
2022/09/17 10:34:30;;;;;;;2.15;1.27;;;;;;;17.82;61.09;99681.20;1773569;80;21446;-82
2022/09/17 10:36:57;;;;;;;1.87;1.12;;;;;;;17.86;61.05;99673.59;1772100;79;21070;-83
2022/09/17 10:39:36;;;;;;;2.15;1.45;;;;;;;17.93;60.81;99673.02;1772176;80;21058;-82
2022/09/17 10:42:14;;;;;;;1.67;0.90;;;;;;;17.95;60.63;99665.40;1752994;80;21112;-83
2022/09/17 10:44:57;;;;;;;2.95;1.25;;;;;;;18.01;60.49;99677.70;1772154;80;21845;-83
2022/09/17 10:47:30;;;;;;;4.42;1.00;;;;;;;18.13;60.53;99684.09;1737597;80;21051;-83
2022/09/17 10:50:21;;;;;;;1.52;0.98;;;;;;;18.21;60.31;99683.91;1709920;80;21760;-83
2022/09/17 10:52:52;;;;;;;2.25;0.90;;;;;;;18.39;60.13;99691.90;1735072;80;22000;-83
2022/09/17 10:55:48;;;;;;;2.25;1.50;;;;;;;18.68;60.25;99685.87;1729681;81;21970;-84
2022/09/17 10:58:49;;;;;;;1.72;1.40;;;;;;;19.06;60.11;99681.81;1733332;81;21062;-85
2022/09/17 11:01:36;;;;;;;2.58;1.35;;;;;;;19.52;59.94;99673.41;1705978;80;21085;-84
2022/09/17 11:04:31;;;;;;;2.85;1.25;;;;;;;19.95;59.43;99684.17;1765411;80;21086;-85
2022/09/17 11:07:21;;;;;;;5.62;0.80;;;;;;;20.13;58.50;99691.20;1752638;80;21051;-86
2022/09/17 11:10:02;;;;;;;0.50;0.47;;;;;;;20.00;57.54;99700.91;1761917;80;21133;-85
2022/09/17 11:13:08;;;;;;;1.42;0.68;;;;;;;19.61;55.86;99710.52;1777471;80;21731;-85
2022/09/17 11:15:58;;;;;;;0.98;0.47;;;;;;;19.09;55.78;99709.72;1785800;79;21061;-86
2022/09/17 11:18:42;;;;;;;2.10;1.90;;;;;;;18.65;55.84;99713.92;1763364;79;21507;-85
2022/09/17 11:21:23;;;;;;;1.70;1.15;;;;;;;18.28;56.00;99717.45;1790832;79;21128;-85
2022/09/17 11:24:07;;;;;;;2.00;1.57;;;;;;;17.90;55.86;99721.86;1755883;79;21022;-85
2022/09/17 11:26:46;;;;;;;2.20;1.00;;;;;;;17.56;55.82;99728.31;1790675;79;21530;-85
2022/09/17 11:29:34;;;;;;;1.85;0.80;;;;;;;17.19;56.39;99728.58;1737400;80;21089;-85
2022/09/17 11:32:48;;;;;;;1.72;0.90;;;;;;;17.03;57.04;99731.95;1737507;80;21511;-85
2022/09/17 11:35:22;;;;;;;3.17;0.80;;;;;;;16.95;57.78;99727.66;1739452;80;21122;-85
2022/09/17 11:38:15;;;;;;;2.87;0.90;;;;;;;17.05;58.83;99731.47;1739137;80;21085;-85
2022/09/17 11:41:02;;;;;;;3.27;1.90;;;;;;;17.25;59.66;99735.10;1714373;80;22160;-86
2022/09/17 11:43:37;;;;;;;4.53;2.75;;;;;;;17.54;60.20;99731.00;1756707;80;21061;-84
2022/09/17 11:46:28;;;;;;;3.37;2.12;;;;;;;17.73;60.42;99725.30;1739610;80;21101;-84
2022/09/17 11:49:04;;;;;;;3.40;1.10;;;;;;;17.87;60.70;99724.14;1739745;80;21621;-84
2022/09/17 11:51:44;;;;;;;2.10;1.42;;;;;;;17.97;60.58;99722.62;1739344;80;21520;-84
2022/09/17 11:54:31;;;;;;;3.15;1.75;;;;;;;17.97;60.82;99719.95;1739001;80;22291;-84
2022/09/17 11:57:17;;;;;;;5.30;1.20;;;;;;;17.95;60.86;99721.77;1731067;81;21022;-84
2022/09/17 12:00:19;;;;;;;1.22;0.80;;;;;;;17.75;60.83;99707.52;1721363;81;21668;-86
2022/09/17 12:03:12;;;;;;;2.17;1.30;;;;;;;17.71;60.96;99721.34;1727878;81;21506;-87
2022/09/17 12:05:52;;;;;;;2.72;1.17;;;;;;;17.65;61.33;99721.02;1695883;82;21206;-89
2022/09/17 12:08:43;;;;;;;2.62;1.42;;;;;;;17.65;61.62;99719.68;1704072;81;21866;-87
2022/09/17 12:11:15;;;;;;;5.70;1.42;;;;;;;17.74;61.97;99721.28;1702074;82;21093;-87
2022/09/17 12:13:53;;;;;;;1.57;1.15;;;;;;;17.87;62.21;99717.95;1700209;82;21170;-87
2022/09/17 12:16:37;;;;;;;2.72;1.37;;;;;;;18.07;62.26;99720.16;1698083;81;21108;-87
2022/09/17 12:19:22;;;;;;;2.42;1.25;;;;;;;18.36;61.93;99715.97;1736029;80;21053;-86
2022/09/17 12:21:58;;;;;;;2.10;1.10;;;;;;;18.61;61.59;99716.25;1737034;81;21737;-86
2022/09/17 12:24:29;;;;;;;2.47;1.77;;;;;;;18.80;60.37;99712.66;1740687;82;21055;-86